sensor_id;sensor_type;location;lat;lon;timestamp;P1;durP1;ratioP1;P2;durP2;ratioP2
23078;SDS011;11707;50.830;4.364;2023-07-24T00:01:38;10.35;;;6.20;;
23078;SDS011;11707;50.830;4.364;2023-07-24T00:04:04;12.95;;;6.63;;
23078;SDS011;11707;50.830;4.364;2023-07-24T00:06:30;9.18;;;5.90;;
23078;SDS011;11707;50.830;4.364;2023-07-24T00:08:55;11.70;;;6.70;;
23078;SDS011;11707;50.830;4.364;2023-07-24T00:11:21;16.92;;;6.47;;
23078;SDS011;11707;50.830;4.364;2023-07-24T00:13:46;9.00;;;5.95;;
23078;SDS011;11707;50.830;4.364;2023-07-24T00:16:12;9.73;;;6.82;;
23078;SDS011;11707;50.830;4.364;2023-07-24T00:18:38;12.43;;;5.97;;
23078;SDS011;11707;50.830;4.364;2023-07-24T00:21:03;11.32;;;6.43;;
23078;SDS011;11707;50.830;4.364;2023-07-24T00:23:34;11.07;;;6.30;;
23078;SDS011;11707;50.830;4.364;2023-07-24T00:25:59;10.15;;;6.40;;
23078;SDS011;11707;50.830;4.364;2023-07-24T00:28:25;10.75;;;5.75;;
23078;SDS011;11707;50.830;4.364;2023-07-24T00:30:51;17.77;;;6.90;;
23078;SDS011;11707;50.830;4.364;2023-07-24T00:33:20;10.32;;;6.20;;
23078;SDS011;11707;50.830;4.364;2023-07-24T00:35:46;14.02;;;7.35;;
23078;SDS011;11707;50.830;4.364;2023-07-24T00:38:12;10.68;;;6.85;;
23078;SDS011;11707;50.830;4.364;2023-07-24T00:40:38;13.68;;;6.65;;
23078;SDS011;11707;50.830;4.364;2023-07-24T00:43:03;9.80;;;6.57;;
23078;SDS011;11707;50.830;4.364;2023-07-24T00:45:29;11.73;;;6.10;;
23078;SDS011;11707;50.830;4.364;2023-07-24T00:47:55;10.50;;;6.70;;
23078;SDS011;11707;50.830;4.364;2023-07-24T00:50:24;13.63;;;6.20;;
23078;SDS011;11707;50.830;4.364;2023-07-24T00:52:50;11.10;;;6.57;;
23078;SDS011;11707;50.830;4.364;2023-07-24T00:55:16;13.70;;;6.35;;
23078;SDS011;11707;50.830;4.364;2023-07-24T00:57:43;9.85;;;5.40;;
23078;SDS011;11707;50.830;4.364;2023-07-24T01:00:09;9.23;;;5.60;;
23078;SDS011;11707;50.830;4.364;2023-07-24T01:02:37;13.10;;;5.53;;
23078;SDS011;11707;50.830;4.364;2023-07-24T01:05:04;9.25;;;5.82;;
23078;SDS011;11707;50.830;4.364;2023-07-24T01:07:31;11.30;;;5.80;;
23078;SDS011;11707;50.830;4.364;2023-07-24T01:09:57;13.63;;;6.10;;
23078;SDS011;11707;50.830;4.364;2023-07-24T01:12:25;13.43;;;6.38;;
23078;SDS011;11707;50.830;4.364;2023-07-24T01:15:03;13.38;;;7.03;;
23078;SDS011;11707;50.830;4.364;2023-07-24T01:17:32;14.10;;;6.93;;
23078;SDS011;11707;50.830;4.364;2023-07-24T01:20:01;12.45;;;6.88;;
23078;SDS011;11707;50.830;4.364;2023-07-24T01:27:50;11.98;;;7.38;;
23078;SDS011;11707;50.830;4.364;2023-07-24T01:30:19;10.95;;;6.88;;
23078;SDS011;11707;50.830;4.364;2023-07-24T01:32:45;9.95;;;6.60;;
23078;SDS011;11707;50.830;4.364;2023-07-24T01:35:11;11.70;;;6.57;;
23078;SDS011;11707;50.830;4.364;2023-07-24T01:37:37;16.17;;;5.82;;
23078;SDS011;11707;50.830;4.364;2023-07-24T01:40:06;13.27;;;6.25;;
23078;SDS011;11707;50.830;4.364;2023-07-24T01:42:33;16.13;;;7.65;;
23078;SDS011;11707;50.830;4.364;2023-07-24T01:44:59;11.93;;;6.97;;
23078;SDS011;11707;50.830;4.364;2023-07-24T01:47:27;12.70;;;6.50;;
23078;SDS011;11707;50.830;4.364;2023-07-24T01:49:53;13.25;;;6.70;;
23078;SDS011;11707;50.830;4.364;2023-07-24T01:52:19;12.73;;;6.70;;
23078;SDS011;11707;50.830;4.364;2023-07-24T01:54:44;12.00;;;5.78;;
23078;SDS011;11707;50.830;4.364;2023-07-24T01:57:10;6.68;;;4.93;;
23078;SDS011;11707;50.830;4.364;2023-07-24T01:59:36;7.60;;;4.22;;
23078;SDS011;11707;50.830;4.364;2023-07-24T02:02:01;10.23;;;5.05;;
23078;SDS011;11707;50.830;4.364;2023-07-24T02:04:27;8.35;;;4.38;;
23078;SDS011;11707;50.830;4.364;2023-07-24T02:06:53;8.32;;;5.18;;
23078;SDS011;11707;50.830;4.364;2023-07-24T02:09:18;9.55;;;5.00;;
23078;SDS011;11707;50.830;4.364;2023-07-24T02:11:44;10.52;;;4.90;;
23078;SDS011;11707;50.830;4.364;2023-07-24T02:14:11;8.73;;;4.70;;
23078;SDS011;11707;50.830;4.364;2023-07-24T02:16:39;7.20;;;4.57;;
23078;SDS011;11707;50.830;4.364;2023-07-24T02:19:05;9.10;;;5.15;;
23078;SDS011;11707;50.830;4.364;2023-07-24T02:21:31;8.57;;;5.32;;
23078;SDS011;11707;50.830;4.364;2023-07-24T02:23:57;9.82;;;5.20;;
23078;SDS011;11707;50.830;4.364;2023-07-24T02:26:23;8.93;;;4.78;;
23078;SDS011;11707;50.830;4.364;2023-07-24T02:28:49;8.65;;;4.35;;
23078;SDS011;11707;50.830;4.364;2023-07-24T02:31:14;9.38;;;5.75;;
23078;SDS011;11707;50.830;4.364;2023-07-24T02:33:41;9.13;;;5.40;;
23078;SDS011;11707;50.830;4.364;2023-07-24T02:36:06;11.10;;;5.40;;
23078;SDS011;11707;50.830;4.364;2023-07-24T02:38:32;10.65;;;5.40;;
23078;SDS011;11707;50.830;4.364;2023-07-24T02:40:57;6.65;;;3.92;;
23078;SDS011;11707;50.830;4.364;2023-07-24T02:43:25;7.20;;;4.13;;
23078;SDS011;11707;50.830;4.364;2023-07-24T02:45:51;6.30;;;3.40;;
23078;SDS011;11707;50.830;4.364;2023-07-24T02:48:17;6.40;;;3.83;;
23078;SDS011;11707;50.830;4.364;2023-07-24T02:50:47;6.85;;;3.83;;
23078;SDS011;11707;50.830;4.364;2023-07-24T02:53:13;5.97;;;3.58;;
23078;SDS011;11707;50.830;4.364;2023-07-24T02:55:41;8.70;;;4.47;;
23078;SDS011;11707;50.830;4.364;2023-07-24T02:58:08;4.50;;;3.10;;
23078;SDS011;11707;50.830;4.364;2023-07-24T03:00:34;5.45;;;3.15;;
23078;SDS011;11707;50.830;4.364;2023-07-24T03:02:59;6.20;;;3.83;;
23078;SDS011;11707;50.830;4.364;2023-07-24T03:05:30;6.65;;;4.07;;
23078;SDS011;11707;50.830;4.364;2023-07-24T03:07:56;7.97;;;4.47;;
23078;SDS011;11707;50.830;4.364;2023-07-24T03:10:22;6.53;;;4.22;;
23078;SDS011;11707;50.830;4.364;2023-07-24T03:12:48;5.53;;;3.53;;
23078;SDS011;11707;50.830;4.364;2023-07-24T03:15:14;4.45;;;3.28;;
23078;SDS011;11707;50.830;4.364;2023-07-24T03:17:42;7.13;;;2.90;;
23078;SDS011;11707;50.830;4.364;2023-07-24T03:20:08;4.10;;;2.70;;
23078;SDS011;11707;50.830;4.364;2023-07-24T03:22:42;4.10;;;2.90;;
23078;SDS011;11707;50.830;4.364;2023-07-24T03:25:09;3.75;;;2.75;;
23078;SDS011;11707;50.830;4.364;2023-07-24T03:27:34;5.75;;;2.70;;
23078;SDS011;11707;50.830;4.364;2023-07-24T03:30:00;4.57;;;2.90;;
23078;SDS011;11707;50.830;4.364;2023-07-24T03:32:26;3.70;;;2.90;;
23078;SDS011;11707;50.830;4.364;2023-07-24T03:34:52;13.07;;;3.00;;
23078;SDS011;11707;50.830;4.364;2023-07-24T03:37:19;2.80;;;1.90;;
23078;SDS011;11707;50.830;4.364;2023-07-24T03:39:44;4.28;;;2.60;;
23078;SDS011;11707;50.830;4.364;2023-07-24T03:42:10;4.75;;;2.70;;
23078;SDS011;11707;50.830;4.364;2023-07-24T03:44:51;3.28;;;2.40;;
23078;SDS011;11707;50.830;4.364;2023-07-24T03:47:22;4.07;;;2.30;;
23078;SDS011;11707;50.830;4.364;2023-07-24T03:49:48;3.88;;;2.28;;
23078;SDS011;11707;50.830;4.364;2023-07-24T03:52:15;2.95;;;1.98;;
23078;SDS011;11707;50.830;4.364;2023-07-24T03:54:40;2.67;;;2.20;;
23078;SDS011;11707;50.830;4.364;2023-07-24T03:57:06;3.33;;;2.35;;
23078;SDS011;11707;50.830;4.364;2023-07-24T03:59:32;2.42;;;1.95;;
23078;SDS011;11707;50.830;4.364;2023-07-24T04:01:58;2.67;;;2.05;;
23078;SDS011;11707;50.830;4.364;2023-07-24T04:04:24;2.42;;;1.98;;
23078;SDS011;11707;50.830;4.364;2023-07-24T04:06:50;3.00;;;2.08;;
23078;SDS011;11707;50.830;4.364;2023-07-24T04:09:15;3.50;;;1.95;;
23078;SDS011;11707;50.830;4.364;2023-07-24T04:11:44;3.13;;;1.98;;
23078;SDS011;11707;50.830;4.364;2023-07-24T04:14:12;3.08;;;2.20;;
23078;SDS011;11707;50.830;4.364;2023-07-24T04:16:37;7.18;;;1.60;;
23078;SDS011;11707;50.830;4.364;2023-07-24T04:19:05;2.65;;;1.95;;
23078;SDS011;11707;50.830;4.364;2023-07-24T04:21:32;2.75;;;2.03;;
23078;SDS011;11707;50.830;4.364;2023-07-24T04:23:59;2.33;;;1.70;;
23078;SDS011;11707;50.830;4.364;2023-07-24T04:26:24;3.33;;;2.10;;
23078;SDS011;11707;50.830;4.364;2023-07-24T04:28:54;2.97;;;1.73;;
23078;SDS011;11707;50.830;4.364;2023-07-24T04:31:20;4.00;;;2.35;;
23078;SDS011;11707;50.830;4.364;2023-07-24T04:33:48;4.00;;;1.55;;
23078;SDS011;11707;50.830;4.364;2023-07-24T04:36:13;2.40;;;1.85;;
23078;SDS011;11707;50.830;4.364;2023-07-24T04:38:39;2.85;;;1.65;;
23078;SDS011;11707;50.830;4.364;2023-07-24T04:41:07;5.47;;;1.85;;
23078;SDS011;11707;50.830;4.364;2023-07-24T04:43:33;3.33;;;1.75;;
23078;SDS011;11707;50.830;4.364;2023-07-24T04:46:01;5.07;;;1.55;;
23078;SDS011;11707;50.830;4.364;2023-07-24T04:48:26;1.42;;;1.17;;
23078;SDS011;11707;50.830;4.364;2023-07-24T04:50:52;3.30;;;2.55;;
23078;SDS011;11707;50.830;4.364;2023-07-24T04:53:20;4.82;;;2.08;;
23078;SDS011;11707;50.830;4.364;2023-07-24T04:55:48;3.97;;;1.98;;
23078;SDS011;11707;50.830;4.364;2023-07-24T04:58:14;3.85;;;2.10;;
23078;SDS011;11707;50.830;4.364;2023-07-24T05:00:40;4.07;;;2.33;;
23078;SDS011;11707;50.830;4.364;2023-07-24T05:03:05;2.72;;;1.92;;
23078;SDS011;11707;50.830;4.364;2023-07-24T05:05:36;5.65;;;1.85;;
23078;SDS011;11707;50.830;4.364;2023-07-24T05:08:02;2.05;;;1.60;;
23078;SDS011;11707;50.830;4.364;2023-07-24T05:10:28;2.97;;;1.98;;
23078;SDS011;11707;50.830;4.364;2023-07-24T05:12:54;3.15;;;2.30;;
23078;SDS011;11707;50.830;4.364;2023-07-24T05:15:23;4.10;;;2.47;;
23078;SDS011;11707;50.830;4.364;2023-07-24T05:17:49;2.90;;;1.83;;
23078;SDS011;11707;50.830;4.364;2023-07-24T05:20:15;4.20;;;2.58;;
23078;SDS011;11707;50.830;4.364;2023-07-24T05:22:40;2.75;;;2.00;;
23078;SDS011;11707;50.830;4.364;2023-07-24T05:25:08;3.50;;;2.50;;
23078;SDS011;11707;50.830;4.364;2023-07-24T05:27:36;3.20;;;2.28;;
23078;SDS011;11707;50.830;4.364;2023-07-24T05:30:02;4.07;;;2.05;;
23078;SDS011;11707;50.830;4.364;2023-07-24T05:32:29;5.72;;;2.63;;
23078;SDS011;11707;50.830;4.364;2023-07-24T05:34:54;3.72;;;2.80;;
23078;SDS011;11707;50.830;4.364;2023-07-24T05:37:20;4.60;;;2.58;;
23078;SDS011;11707;50.830;4.364;2023-07-24T05:39:45;4.10;;;2.45;;
23078;SDS011;11707;50.830;4.364;2023-07-24T05:42:11;5.68;;;3.05;;
23078;SDS011;11707;50.830;4.364;2023-07-24T05:44:39;4.18;;;3.47;;
23078;SDS011;11707;50.830;4.364;2023-07-24T05:47:07;4.93;;;2.95;;
23078;SDS011;11707;50.830;4.364;2023-07-24T05:49:34;5.72;;;2.22;;
23078;SDS011;11707;50.830;4.364;2023-07-24T05:51:59;2.85;;;2.25;;
23078;SDS011;11707;50.830;4.364;2023-07-24T05:54:25;2.53;;;1.85;;
23078;SDS011;11707;50.830;4.364;2023-07-24T05:56:53;3.85;;;2.55;;
23078;SDS011;11707;50.830;4.364;2023-07-24T05:59:19;4.28;;;2.42;;
23078;SDS011;11707;50.830;4.364;2023-07-24T06:01:44;4.50;;;2.33;;
23078;SDS011;11707;50.830;4.364;2023-07-24T06:04:10;4.15;;;2.00;;
23078;SDS011;11707;50.830;4.364;2023-07-24T06:06:35;3.17;;;2.47;;
23078;SDS011;11707;50.830;4.364;2023-07-24T06:09:01;3.78;;;2.28;;
23078;SDS011;11707;50.830;4.364;2023-07-24T06:11:29;4.13;;;2.53;;
23078;SDS011;11707;50.830;4.364;2023-07-24T06:13:55;4.63;;;3.67;;
23078;SDS011;11707;50.830;4.364;2023-07-24T06:16:23;3.47;;;2.53;;
23078;SDS011;11707;50.830;4.364;2023-07-24T06:18:48;4.07;;;2.75;;
23078;SDS011;11707;50.830;4.364;2023-07-24T06:21:14;4.18;;;2.45;;
23078;SDS011;11707;50.830;4.364;2023-07-24T06:23:40;3.55;;;2.17;;
23078;SDS011;11707;50.830;4.364;2023-07-24T06:26:08;4.20;;;2.60;;
23078;SDS011;11707;50.830;4.364;2023-07-24T06:28:33;4.50;;;2.83;;
23078;SDS011;11707;50.830;4.364;2023-07-24T06:30:59;7.30;;;2.58;;
23078;SDS011;11707;50.830;4.364;2023-07-24T06:33:25;4.85;;;2.65;;
23078;SDS011;11707;50.830;4.364;2023-07-24T06:35:50;5.07;;;2.70;;
23078;SDS011;11707;50.830;4.364;2023-07-24T06:38:16;5.65;;;2.55;;
23078;SDS011;11707;50.830;4.364;2023-07-24T06:40:42;5.40;;;3.17;;
23078;SDS011;11707;50.830;4.364;2023-07-24T06:43:10;9.65;;;2.97;;
23078;SDS011;11707;50.830;4.364;2023-07-24T06:45:38;4.60;;;2.50;;
23078;SDS011;11707;50.830;4.364;2023-07-24T06:48:04;5.50;;;2.40;;
23078;SDS011;11707;50.830;4.364;2023-07-24T06:50:29;5.68;;;2.60;;
23078;SDS011;11707;50.830;4.364;2023-07-24T06:52:57;7.57;;;2.22;;
23078;SDS011;11707;50.830;4.364;2023-07-24T06:55:26;4.00;;;2.50;;
23078;SDS011;11707;50.830;4.364;2023-07-24T06:57:51;3.00;;;2.33;;
23078;SDS011;11707;50.830;4.364;2023-07-24T07:00:17;8.60;;;2.70;;
23078;SDS011;11707;50.830;4.364;2023-07-24T07:02:43;7.35;;;2.67;;
23078;SDS011;11707;50.830;4.364;2023-07-24T07:05:08;3.45;;;2.55;;
23078;SDS011;11707;50.830;4.364;2023-07-24T07:07:37;6.85;;;2.80;;
23078;SDS011;11707;50.830;4.364;2023-07-24T07:10:02;4.75;;;2.30;;
23078;SDS011;11707;50.830;4.364;2023-07-24T07:12:28;3.05;;;2.30;;
23078;SDS011;11707;50.830;4.364;2023-07-24T07:14:54;4.55;;;2.70;;
23078;SDS011;11707;50.830;4.364;2023-07-24T07:17:19;4.97;;;2.20;;
23078;SDS011;11707;50.830;4.364;2023-07-24T07:19:45;4.40;;;2.33;;
23078;SDS011;11707;50.830;4.364;2023-07-24T07:22:11;7.53;;;2.42;;
23078;SDS011;11707;50.830;4.364;2023-07-24T07:24:38;3.85;;;2.72;;
23078;SDS011;11707;50.830;4.364;2023-07-24T07:27:04;5.20;;;2.35;;
23078;SDS011;11707;50.830;4.364;2023-07-24T07:29:30;4.05;;;2.50;;
23078;SDS011;11707;50.830;4.364;2023-07-24T07:31:56;3.53;;;2.15;;
23078;SDS011;11707;50.830;4.364;2023-07-24T07:34:22;5.32;;;2.50;;
23078;SDS011;11707;50.830;4.364;2023-07-24T07:36:47;3.35;;;2.40;;
23078;SDS011;11707;50.830;4.364;2023-07-24T07:39:15;8.05;;;1.98;;
23078;SDS011;11707;50.830;4.364;2023-07-24T07:41:41;6.15;;;2.33;;
23078;SDS011;11707;50.830;4.364;2023-07-24T07:44:07;3.80;;;1.95;;
23078;SDS011;11707;50.830;4.364;2023-07-24T07:46:32;3.60;;;2.30;;
23078;SDS011;11707;50.830;4.364;2023-07-24T07:48:58;3.63;;;1.98;;
23078;SDS011;11707;50.830;4.364;2023-07-24T07:51:24;4.15;;;2.13;;
23078;SDS011;11707;50.830;4.364;2023-07-24T07:53:50;4.38;;;2.58;;
23078;SDS011;11707;50.830;4.364;2023-07-24T07:56:18;5.93;;;2.35;;
23078;SDS011;11707;50.830;4.364;2023-07-24T07:58:44;4.80;;;1.98;;
23078;SDS011;11707;50.830;4.364;2023-07-24T08:01:09;3.30;;;1.65;;
23078;SDS011;11707;50.830;4.364;2023-07-24T08:03:35;2.75;;;1.80;;
23078;SDS011;11707;50.830;4.364;2023-07-24T08:06:01;4.80;;;2.15;;
23078;SDS011;11707;50.830;4.364;2023-07-24T08:08:27;2.50;;;1.70;;
23078;SDS011;11707;50.830;4.364;2023-07-24T08:10:55;6.10;;;2.05;;
23078;SDS011;11707;50.830;4.364;2023-07-24T08:13:20;5.45;;;1.98;;
23078;SDS011;11707;50.830;4.364;2023-07-24T08:15:46;2.90;;;1.92;;
23078;SDS011;11707;50.830;4.364;2023-07-24T08:18:14;3.35;;;2.15;;
23078;SDS011;11707;50.830;4.364;2023-07-24T08:20:40;2.78;;;2.03;;
23078;SDS011;11707;50.830;4.364;2023-07-24T08:23:08;5.40;;;2.15;;
23078;SDS011;11707;50.830;4.364;2023-07-24T08:25:33;3.70;;;2.08;;
23078;SDS011;11707;50.830;4.364;2023-07-24T08:27:59;4.07;;;2.40;;
23078;SDS011;11707;50.830;4.364;2023-07-24T08:30:25;6.30;;;2.88;;
23078;SDS011;11707;50.830;4.364;2023-07-24T08:32:50;4.90;;;2.20;;
23078;SDS011;11707;50.830;4.364;2023-07-24T08:35:16;4.82;;;2.65;;
23078;SDS011;11707;50.830;4.364;2023-07-24T08:37:45;4.72;;;2.72;;
23078;SDS011;11707;50.830;4.364;2023-07-24T08:40:10;6.20;;;2.90;;
23078;SDS011;11707;50.830;4.364;2023-07-24T08:42:39;7.50;;;2.83;;
23078;SDS011;11707;50.830;4.364;2023-07-24T08:45:12;4.60;;;2.80;;
23078;SDS011;11707;50.830;4.364;2023-07-24T08:47:45;3.20;;;2.10;;
23078;SDS011;11707;50.830;4.364;2023-07-24T08:50:13;3.83;;;2.35;;
23078;SDS011;11707;50.830;4.364;2023-07-24T08:52:42;2.95;;;2.33;;
23078;SDS011;11707;50.830;4.364;2023-07-24T08:55:09;6.90;;;3.40;;
23078;SDS011;11707;50.830;4.364;2023-07-24T08:57:36;4.07;;;2.53;;
23078;SDS011;11707;50.830;4.364;2023-07-24T09:00:04;3.85;;;2.63;;
23078;SDS011;11707;50.830;4.364;2023-07-24T09:02:31;4.25;;;2.78;;
23078;SDS011;11707;50.830;4.364;2023-07-24T09:04:58;5.47;;;2.65;;
23078;SDS011;11707;50.830;4.364;2023-07-24T09:07:24;5.28;;;2.50;;
23078;SDS011;11707;50.830;4.364;2023-07-24T09:09:49;5.55;;;3.00;;
23078;SDS011;11707;50.830;4.364;2023-07-24T09:12:15;4.03;;;2.47;;
23078;SDS011;11707;50.830;4.364;2023-07-24T09:14:41;5.55;;;2.92;;
23078;SDS011;11707;50.830;4.364;2023-07-24T09:17:07;5.30;;;2.90;;
23078;SDS011;11707;50.830;4.364;2023-07-24T09:19:35;4.10;;;3.13;;
23078;SDS011;11707;50.830;4.364;2023-07-24T09:22:11;5.70;;;3.28;;
23078;SDS011;11707;50.830;4.364;2023-07-24T09:24:48;5.57;;;2.78;;
23078;SDS011;11707;50.830;4.364;2023-07-24T09:27:18;5.22;;;2.55;;
23078;SDS011;11707;50.830;4.364;2023-07-24T09:29:44;9.27;;;3.40;;
23078;SDS011;11707;50.830;4.364;2023-07-24T09:34:51;5.55;;;3.10;;
23078;SDS011;11707;50.830;4.364;2023-07-24T09:39:56;6.00;;;2.70;;
23078;SDS011;11707;50.830;4.364;2023-07-24T09:42:28;4.18;;;2.97;;
23078;SDS011;11707;50.830;4.364;2023-07-24T09:44:58;5.35;;;3.50;;
23078;SDS011;11707;50.830;4.364;2023-07-24T09:47:25;4.50;;;3.20;;
23078;SDS011;11707;50.830;4.364;2023-07-24T09:49:51;5.28;;;3.35;;
23078;SDS011;11707;50.830;4.364;2023-07-24T09:52:20;5.45;;;2.90;;
23078;SDS011;11707;50.830;4.364;2023-07-24T09:54:53;14.23;;;2.83;;
23078;SDS011;11707;50.830;4.364;2023-07-24T09:57:32;7.38;;;3.45;;
23078;SDS011;11707;50.830;4.364;2023-07-24T09:59:59;3.80;;;2.80;;
23078;SDS011;11707;50.830;4.364;2023-07-24T10:02:28;3.63;;;2.45;;
23078;SDS011;11707;50.830;4.364;2023-07-24T10:04:55;4.90;;;3.40;;
23078;SDS011;11707;50.830;4.364;2023-07-24T10:07:22;3.67;;;2.40;;
23078;SDS011;11707;50.830;4.364;2023-07-24T10:09:49;5.68;;;2.70;;
23078;SDS011;11707;50.830;4.364;2023-07-24T10:12:18;5.10;;;2.97;;
23078;SDS011;11707;50.830;4.364;2023-07-24T10:14:47;5.40;;;3.03;;
23078;SDS011;11707;50.830;4.364;2023-07-24T10:17:13;5.80;;;2.90;;
23078;SDS011;11707;50.830;4.364;2023-07-24T10:19:42;4.65;;;2.63;;
23078;SDS011;11707;50.830;4.364;2023-07-24T10:22:16;6.75;;;2.72;;
23078;SDS011;11707;50.830;4.364;2023-07-24T10:24:45;4.07;;;2.80;;
23078;SDS011;11707;50.830;4.364;2023-07-24T10:27:12;2.95;;;2.25;;
23078;SDS011;11707;50.830;4.364;2023-07-24T10:29:37;5.53;;;3.35;;
23078;SDS011;11707;50.830;4.364;2023-07-24T10:32:26;6.38;;;5.00;;
23078;SDS011;11707;50.830;4.364;2023-07-24T10:35:07;3.83;;;2.78;;
23078;SDS011;11707;50.830;4.364;2023-07-24T10:37:34;2.72;;;2.20;;
23078;SDS011;11707;50.830;4.364;2023-07-24T10:40:01;4.38;;;2.85;;
23078;SDS011;11707;50.830;4.364;2023-07-24T10:42:30;7.03;;;3.33;;
23078;SDS011;11707;50.830;4.364;2023-07-24T10:45:05;4.32;;;3.22;;
23078;SDS011;11707;50.830;4.364;2023-07-24T10:47:31;4.65;;;3.03;;
23078;SDS011;11707;50.830;4.364;2023-07-24T10:49:57;3.90;;;2.65;;
23078;SDS011;11707;50.830;4.364;2023-07-24T10:52:32;5.47;;;3.42;;
23078;SDS011;11707;50.830;4.364;2023-07-24T10:55:05;4.45;;;3.38;;
23078;SDS011;11707;50.830;4.364;2023-07-24T10:57:33;5.75;;;3.65;;
23078;SDS011;11707;50.830;4.364;2023-07-24T10:59:59;4.43;;;3.53;;
23078;SDS011;11707;50.830;4.364;2023-07-24T11:02:25;4.88;;;3.53;;
23078;SDS011;11707;50.830;4.364;2023-07-24T11:04:50;4.90;;;3.28;;
23078;SDS011;11707;50.830;4.364;2023-07-24T11:07:19;5.85;;;3.10;;
23078;SDS011;11707;50.830;4.364;2023-07-24T11:09:46;5.78;;;3.25;;
23078;SDS011;11707;50.830;4.364;2023-07-24T11:12:14;4.43;;;3.05;;
23078;SDS011;11707;50.830;4.364;2023-07-24T11:17:16;7.15;;;4.07;;
23078;SDS011;11707;50.830;4.364;2023-07-24T11:19:42;8.07;;;3.50;;
23078;SDS011;11707;50.830;4.364;2023-07-24T11:22:08;5.90;;;3.22;;
23078;SDS011;11707;50.830;4.364;2023-07-24T11:24:41;7.28;;;3.33;;
23078;SDS011;11707;50.830;4.364;2023-07-24T11:27:14;5.38;;;3.60;;
23078;SDS011;11707;50.830;4.364;2023-07-24T11:29:42;5.32;;;3.35;;
23078;SDS011;11707;50.830;4.364;2023-07-24T11:32:16;4.57;;;3.50;;
23078;SDS011;11707;50.830;4.364;2023-07-24T11:34:43;6.55;;;3.38;;
23078;SDS011;11707;50.830;4.364;2023-07-24T11:37:09;3.85;;;3.03;;
23078;SDS011;11707;50.830;4.364;2023-07-24T11:39:34;6.13;;;3.30;;
23078;SDS011;11707;50.830;4.364;2023-07-24T11:42:02;5.05;;;3.55;;
23078;SDS011;11707;50.830;4.364;2023-07-24T11:44:28;9.73;;;3.33;;
23078;SDS011;11707;50.830;4.364;2023-07-24T11:47:03;9.13;;;3.58;;
23078;SDS011;11707;50.830;4.364;2023-07-24T11:49:30;4.85;;;3.50;;
23078;SDS011;11707;50.830;4.364;2023-07-24T11:51:59;8.32;;;3.65;;
23078;SDS011;11707;50.830;4.364;2023-07-24T11:54:26;4.25;;;2.92;;
23078;SDS011;11707;50.830;4.364;2023-07-24T11:56:54;4.47;;;3.17;;
23078;SDS011;11707;50.830;4.364;2023-07-24T11:59:19;6.65;;;3.38;;
23078;SDS011;11707;50.830;4.364;2023-07-24T12:01:46;5.13;;;3.03;;
23078;SDS011;11707;50.830;4.364;2023-07-24T12:04:15;5.20;;;2.83;;
23078;SDS011;11707;50.830;4.364;2023-07-24T12:06:41;5.30;;;2.60;;
23078;SDS011;11707;50.830;4.364;2023-07-24T12:09:07;6.35;;;2.95;;
23078;SDS011;11707;50.830;4.364;2023-07-24T12:11:43;5.60;;;2.75;;
23078;SDS011;11707;50.830;4.364;2023-07-24T12:14:09;6.80;;;3.25;;
23078;SDS011;11707;50.830;4.364;2023-07-24T12:16:35;5.72;;;2.95;;
23078;SDS011;11707;50.830;4.364;2023-07-24T12:19:01;6.25;;;3.60;;
23078;SDS011;11707;50.830;4.364;2023-07-24T12:21:27;5.63;;;3.15;;
23078;SDS011;11707;50.830;4.364;2023-07-24T12:23:55;7.75;;;3.38;;
23078;SDS011;11707;50.830;4.364;2023-07-24T12:26:23;5.85;;;3.10;;
23078;SDS011;11707;50.830;4.364;2023-07-24T12:28:52;4.32;;;2.53;;
23078;SDS011;11707;50.830;4.364;2023-07-24T12:31:20;4.05;;;2.78;;
23078;SDS011;11707;50.830;4.364;2023-07-24T12:33:46;7.13;;;2.80;;
23078;SDS011;11707;50.830;4.364;2023-07-24T12:36:11;5.22;;;3.30;;
23078;SDS011;11707;50.830;4.364;2023-07-24T12:38:37;5.03;;;2.95;;
23078;SDS011;11707;50.830;4.364;2023-07-24T12:41:02;9.52;;;3.60;;
23078;SDS011;11707;50.830;4.364;2023-07-24T12:43:28;8.88;;;3.35;;
23078;SDS011;11707;50.830;4.364;2023-07-24T12:45:54;3.60;;;2.58;;
23078;SDS011;11707;50.830;4.364;2023-07-24T12:48:22;4.63;;;2.58;;
23078;SDS011;11707;50.830;4.364;2023-07-24T12:50:50;4.15;;;2.90;;
23078;SDS011;11707;50.830;4.364;2023-07-24T12:53:16;3.65;;;2.80;;
23078;SDS011;11707;50.830;4.364;2023-07-24T12:55:41;6.35;;;3.05;;
23078;SDS011;11707;50.830;4.364;2023-07-24T12:58:07;7.03;;;3.55;;
23078;SDS011;11707;50.830;4.364;2023-07-24T13:00:33;8.13;;;3.28;;
23078;SDS011;11707;50.830;4.364;2023-07-24T13:02:58;4.38;;;3.22;;
23078;SDS011;11707;50.830;4.364;2023-07-24T13:05:26;5.53;;;3.10;;
23078;SDS011;11707;50.830;4.364;2023-07-24T13:07:52;6.38;;;2.95;;
23078;SDS011;11707;50.830;4.364;2023-07-24T13:10:20;5.22;;;3.05;;
23078;SDS011;11707;50.830;4.364;2023-07-24T13:12:48;4.40;;;3.30;;
23078;SDS011;11707;50.830;4.364;2023-07-24T13:15:14;5.97;;;3.17;;
23078;SDS011;11707;50.830;4.364;2023-07-24T13:17:40;6.28;;;3.60;;
23078;SDS011;11707;50.830;4.364;2023-07-24T13:20:08;7.13;;;3.42;;
23078;SDS011;11707;50.830;4.364;2023-07-24T13:22:36;6.35;;;3.53;;
23078;SDS011;11707;50.830;4.364;2023-07-24T13:25:04;4.53;;;3.40;;
23078;SDS011;11707;50.830;4.364;2023-07-24T13:27:31;5.50;;;3.35;;
23078;SDS011;11707;50.830;4.364;2023-07-24T13:29:59;5.90;;;2.90;;
23078;SDS011;11707;50.830;4.364;2023-07-24T13:32:27;6.53;;;3.70;;
23078;SDS011;11707;50.830;4.364;2023-07-24T13:34:57;4.88;;;3.30;;
23078;SDS011;11707;50.830;4.364;2023-07-24T13:37:24;4.40;;;3.35;;
23078;SDS011;11707;50.830;4.364;2023-07-24T13:39:51;5.18;;;3.60;;
23078;SDS011;11707;50.830;4.364;2023-07-24T13:42:16;7.85;;;4.22;;
23078;SDS011;11707;50.830;4.364;2023-07-24T13:44:42;3.67;;;3.08;;
23078;SDS011;11707;50.830;4.364;2023-07-24T13:47:07;4.65;;;2.92;;
23078;SDS011;11707;50.830;4.364;2023-07-24T13:49:35;6.90;;;2.50;;
23078;SDS011;11707;50.830;4.364;2023-07-24T13:52:01;6.18;;;3.83;;
23078;SDS011;11707;50.830;4.364;2023-07-24T13:54:27;3.83;;;2.25;;
23078;SDS011;11707;50.830;4.364;2023-07-24T13:56:52;3.97;;;2.60;;
23078;SDS011;11707;50.830;4.364;2023-07-24T13:59:18;5.82;;;2.50;;
23078;SDS011;11707;50.830;4.364;2023-07-24T14:01:44;5.22;;;2.78;;
23078;SDS011;11707;50.830;4.364;2023-07-24T14:04:09;4.50;;;2.53;;
23078;SDS011;11707;50.830;4.364;2023-07-24T14:06:37;5.00;;;2.70;;
23078;SDS011;11707;50.830;4.364;2023-07-24T14:09:02;5.18;;;2.63;;
23078;SDS011;11707;50.830;4.364;2023-07-24T14:11:28;5.97;;;2.45;;
23078;SDS011;11707;50.830;4.364;2023-07-24T14:13:54;2.83;;;2.33;;
23078;SDS011;11707;50.830;4.364;2023-07-24T14:16:19;4.95;;;2.40;;
23078;SDS011;11707;50.830;4.364;2023-07-24T14:18:48;6.93;;;2.35;;
23078;SDS011;11707;50.830;4.364;2023-07-24T14:21:13;2.75;;;1.92;;
23078;SDS011;11707;50.830;4.364;2023-07-24T14:23:39;3.22;;;2.22;;
23078;SDS011;11707;50.830;4.364;2023-07-24T14:26:05;4.70;;;2.50;;
23078;SDS011;11707;50.830;4.364;2023-07-24T14:28:30;3.80;;;2.20;;
23078;SDS011;11707;50.830;4.364;2023-07-24T14:30:56;3.92;;;2.60;;
23078;SDS011;11707;50.830;4.364;2023-07-24T14:33:22;4.47;;;2.85;;
23078;SDS011;11707;50.830;4.364;2023-07-24T14:35:47;3.88;;;2.00;;
23078;SDS011;11707;50.830;4.364;2023-07-24T14:38:13;4.55;;;2.40;;
23078;SDS011;11707;50.830;4.364;2023-07-24T14:40:39;3.97;;;2.83;;
23078;SDS011;11707;50.830;4.364;2023-07-24T14:43:05;5.13;;;2.53;;
23078;SDS011;11707;50.830;4.364;2023-07-24T14:45:32;5.63;;;2.47;;
23078;SDS011;11707;50.830;4.364;2023-07-24T14:47:58;4.50;;;2.42;;
23078;SDS011;11707;50.830;4.364;2023-07-24T14:50:26;6.18;;;2.78;;
23078;SDS011;11707;50.830;4.364;2023-07-24T14:52:54;4.72;;;2.17;;
23078;SDS011;11707;50.830;4.364;2023-07-24T14:55:20;4.25;;;2.03;;
23078;SDS011;11707;50.830;4.364;2023-07-24T14:57:46;3.80;;;2.20;;